createdAt,value
2023-02-15T00:01:42.325Z,65.30
2023-02-15T00:04:10.323Z,64.10
2023-02-15T00:06:37.672Z,61.53
2023-02-15T00:09:05.011Z,60.37
2023-02-15T00:11:41.549Z,61.27
2023-02-15T00:14:09.791Z,62.67
2023-02-15T00:16:37.678Z,68.80
2023-02-15T00:19:05.052Z,69.00
2023-02-15T00:21:33.109Z,71.33
2023-02-15T00:24:01.115Z,69.67
2023-02-15T00:26:28.433Z,69.83
2023-02-15T00:28:56.423Z,66.27
2023-02-15T00:31:23.940Z,66.83
2023-02-15T00:33:51.232Z,67.57
2023-02-15T00:36:18.429Z,63.53
2023-02-15T00:38:45.650Z,65.07
2023-02-15T00:41:12.898Z,67.40
2023-02-15T00:43:40.152Z,72.80
2023-02-15T00:46:07.515Z,73.47
2023-02-15T00:48:34.789Z,71.80
2023-02-15T00:51:02.600Z,70.20
2023-02-15T00:53:30.448Z,73.53
2023-02-15T00:55:58.442Z,77.83
2023-02-15T00:58:25.868Z,75.23
2023-02-15T01:00:53.558Z,69.17
2023-02-15T01:03:21.699Z,70.60
2023-02-15T01:05:49.711Z,65.77
2023-02-15T01:08:17.390Z,67.00
2023-02-15T01:10:46.760Z,64.23
2023-02-15T01:13:13.961Z,59.87
2023-02-15T01:15:44.080Z,59.07
2023-02-15T01:18:14.449Z,55.40
2023-02-15T01:20:42.590Z,57.17
2023-02-15T01:23:11.644Z,60.07
2023-02-15T01:25:38.901Z,61.90
2023-02-15T01:28:06.685Z,57.10
2023-02-15T01:30:34.451Z,57.03
2023-02-15T01:33:01.810Z,58.70
2023-02-15T01:35:30.126Z,60.03
2023-02-15T01:37:57.665Z,57.50
2023-02-15T01:40:25.576Z,55.57
2023-02-15T01:42:56.828Z,55.10
2023-02-15T01:45:24.057Z,54.77
2023-02-15T01:47:56.275Z,52.93
2023-02-15T01:50:29.685Z,53.27
2023-02-15T01:52:56.837Z,49.87
2023-02-15T01:55:25.536Z,49.57
2023-02-15T01:57:53.386Z,51.00
2023-02-15T02:00:21.215Z,50.57
2023-02-15T02:02:49.269Z,51.30
2023-02-15T02:05:16.537Z,47.53
2023-02-15T02:07:45.475Z,49.27
2023-02-15T02:10:14.401Z,48.00
2023-02-15T02:12:42.580Z,47.50
2023-02-15T02:15:10.446Z,44.27
2023-02-15T02:17:56.449Z,45.20
2023-02-15T02:20:26.742Z,44.03
2023-02-15T02:22:56.816Z,44.43
2023-02-15T02:25:36.400Z,42.10
2023-02-15T02:28:23.289Z,45.30
2023-02-15T02:31:09.189Z,48.07
2023-02-15T02:33:45.711Z,47.63
2023-02-15T02:36:31.930Z,48.07
2023-02-15T02:38:59.138Z,49.93
2023-02-15T02:41:31.410Z,48.57
2023-02-15T02:44:06.882Z,51.87
2023-02-15T02:46:43.490Z,52.30
2023-02-15T02:49:10.819Z,57.30
2023-02-15T02:51:38.380Z,61.23
2023-02-15T02:54:07.129Z,56.97
2023-02-15T02:56:40.391Z,60.50
2023-02-15T02:59:11.549Z,55.17
2023-02-15T03:01:51.592Z,53.97
2023-02-15T03:04:24.931Z,53.47
2023-02-15T03:07:09.492Z,49.20
2023-02-15T03:09:44.009Z,50.70
2023-02-15T03:12:31.617Z,50.00
2023-02-15T03:15:01.935Z,47.87
2023-02-15T03:17:31.600Z,51.50
2023-02-15T03:20:00.064Z,52.37
2023-02-15T03:22:32.750Z,55.20
2023-02-15T03:25:05.999Z,56.67
2023-02-15T03:27:35.560Z,55.83
2023-02-15T03:30:04.117Z,53.57
2023-02-15T03:32:34.456Z,54.90
2023-02-15T03:35:02.066Z,50.50
2023-02-15T03:37:35.033Z,50.00
2023-02-15T03:40:41.935Z,51.03
2023-02-15T03:43:14.751Z,45.70
2023-02-15T03:45:55.516Z,46.73
2023-02-15T03:48:25.171Z,48.33
2023-02-15T03:51:11.991Z,48.00
2023-02-15T03:53:39.339Z,45.50
2023-02-15T03:56:06.646Z,49.07
2023-02-15T03:58:52.344Z,48.97
2023-02-15T04:01:43.809Z,49.10
2023-02-15T04:04:14.361Z,47.70
2023-02-15T04:06:41.566Z,50.37
2023-02-15T04:09:27.653Z,52.90
2023-02-15T04:11:54.830Z,52.17
2023-02-15T04:14:40.862Z,51.30
2023-02-15T04:17:08.318Z,52.47
2023-02-15T04:19:54.509Z,52.23
2023-02-15T04:22:40.237Z,50.40
2023-02-15T04:25:11.610Z,47.90
2023-02-15T04:27:39.364Z,49.40
2023-02-15T04:30:07.478Z,51.97
2023-02-15T04:32:35.383Z,52.20
2023-02-15T04:35:02.675Z,52.43
2023-02-15T04:37:30.157Z,51.73
2023-02-15T04:39:59.480Z,50.20
2023-02-15T04:42:27.056Z,49.43
2023-02-15T04:44:54.496Z,47.17
2023-02-15T04:47:21.688Z,48.80
2023-02-15T04:49:48.910Z,47.73
2023-02-15T04:52:16.145Z,46.37
2023-02-15T04:54:43.325Z,46.90
2023-02-15T04:57:10.566Z,44.90
2023-02-15T04:59:37.818Z,45.53
2023-02-15T05:02:05.215Z,45.83
2023-02-15T05:04:32.598Z,46.93
2023-02-15T05:06:59.835Z,46.70
2023-02-15T05:09:27.144Z,46.50
2023-02-15T05:11:54.445Z,47.20
2023-02-15T05:14:21.833Z,49.83
2023-02-15T05:16:49.106Z,49.67
2023-02-15T05:19:16.875Z,50.37
2023-02-15T05:21:44.066Z,53.10
2023-02-15T05:24:30.108Z,53.60
2023-02-15T05:27:16.034Z,61.37
2023-02-15T05:29:43.218Z,61.77
2023-02-15T05:32:11.581Z,62.87
2023-02-15T05:34:38.815Z,59.00
2023-02-15T05:37:05.985Z,56.73
2023-02-15T05:39:33.132Z,54.70
2023-02-15T05:42:03.088Z,49.90
2023-02-15T05:44:30.654Z,52.60
2023-02-15T05:46:57.880Z,55.50
2023-02-15T05:49:25.107Z,53.63
2023-02-15T05:51:52.323Z,53.03
2023-02-15T05:54:19.702Z,51.13
2023-02-15T05:56:46.853Z,50.23
2023-02-15T05:59:14.085Z,49.90
2023-02-15T06:01:41.329Z,48.93
2023-02-15T06:04:08.493Z,53.47
2023-02-15T06:06:35.847Z,52.50
2023-02-15T06:09:03.084Z,47.93
2023-02-15T06:11:30.348Z,48.17
2023-02-15T06:13:57.528Z,47.87
2023-02-15T06:16:24.781Z,50.27
2023-02-15T06:18:53.742Z,51.97
2023-02-15T06:21:21.130Z,49.80
2023-02-15T06:23:48.355Z,50.93
2023-02-15T06:26:15.583Z,56.60
2023-02-15T06:28:43.506Z,55.80
2023-02-15T06:31:11.305Z,57.83
2023-02-15T06:33:39.332Z,59.43
2023-02-15T06:36:06.786Z,58.60
2023-02-15T06:38:34.014Z,52.10
2023-02-15T06:41:01.219Z,44.60
2023-02-15T06:43:28.483Z,45.03
2023-02-15T06:45:55.885Z,43.60
2023-02-15T06:48:23.102Z,42.03
2023-02-15T06:50:50.449Z,43.97
2023-02-15T06:53:17.799Z,42.83
2023-02-15T06:55:45.023Z,43.97
2023-02-15T06:58:12.237Z,44.13
2023-02-15T07:00:39.768Z,43.20
2023-02-15T07:03:07.034Z,40.30
2023-02-15T07:05:35.606Z,38.50
2023-02-15T07:08:03.145Z,39.27
2023-02-15T07:10:30.650Z,38.10
2023-02-15T07:12:57.931Z,38.87
2023-02-15T07:15:25.428Z,39.30
2023-02-15T07:17:52.810Z,37.67
2023-02-15T07:20:24.740Z,35.83
2023-02-15T07:22:52.217Z,37.50
2023-02-15T07:25:19.626Z,36.40
2023-02-15T07:27:46.842Z,36.40
2023-02-15T07:30:16.074Z,35.77
2023-02-15T07:33:04.743Z,35.97
2023-02-15T07:35:32.492Z,35.30
2023-02-15T07:37:59.744Z,36.07
2023-02-15T07:40:27.066Z,35.20
2023-02-15T07:42:55.828Z,34.70
2023-02-15T07:45:23.463Z,35.40
2023-02-15T07:47:50.851Z,34.90
2023-02-15T07:50:18.248Z,36.13
2023-02-15T07:52:45.495Z,34.47
2023-02-15T07:55:13.794Z,33.97
2023-02-15T07:57:45.315Z,35.13
2023-02-15T08:00:14.197Z,37.60
2023-02-15T08:02:41.588Z,37.63
2023-02-15T08:05:09.135Z,37.67
2023-02-15T08:07:36.464Z,37.03
2023-02-15T08:10:03.685Z,39.10
2023-02-15T08:12:30.948Z,39.40
2023-02-15T08:14:58.131Z,38.97
2023-02-15T08:17:25.363Z,39.40
2023-02-15T08:19:52.561Z,39.60
2023-02-15T08:22:19.784Z,37.77
2023-02-15T08:24:48.170Z,38.17
2023-02-15T08:27:15.401Z,40.60
2023-02-15T08:29:43.384Z,39.83
2023-02-15T08:32:11.606Z,37.33
2023-02-15T08:34:40.603Z,36.97
2023-02-15T08:37:08.276Z,38.77
2023-02-15T08:39:36.054Z,40.67
2023-02-15T08:42:03.509Z,38.00
2023-02-15T08:44:30.747Z,38.97
2023-02-15T08:47:03.661Z,41.80
2023-02-15T08:49:31.170Z,40.67
2023-02-15T08:51:58.582Z,36.77
2023-02-15T08:54:25.817Z,39.00
2023-02-15T08:56:53.105Z,38.03
2023-02-15T08:59:21.535Z,36.47
2023-02-15T09:01:49.564Z,36.60
2023-02-15T09:04:17.022Z,35.53
2023-02-15T09:06:47.602Z,35.10
2023-02-15T09:09:15.516Z,32.90
2023-02-15T09:11:44.096Z,35.03
2023-02-15T09:14:15.110Z,33.63
2023-02-15T09:16:43.623Z,33.87
2023-02-15T09:19:11.098Z,33.20
2023-02-15T09:21:39.230Z,34.33
2023-02-15T09:24:07.705Z,32.63
2023-02-15T09:26:36.931Z,32.47
2023-02-15T09:29:05.672Z,33.40
2023-02-15T09:31:35.881Z,29.53
2023-02-15T09:34:03.178Z,30.37
2023-02-15T09:36:32.305Z,29.97
2023-02-15T09:38:59.810Z,29.07
2023-02-15T09:41:45.950Z,30.83
2023-02-15T09:44:32.037Z,30.57
2023-02-15T09:46:59.274Z,28.70
2023-02-15T09:49:32.699Z,28.73
2023-02-15T09:52:20.203Z,30.47
2023-02-15T09:54:59.704Z,30.33
2023-02-15T09:57:26.884Z,28.67
2023-02-15T10:00:09.342Z,28.50
2023-02-15T10:02:40.075Z,27.97
2023-02-15T10:05:10.427Z,28.60
2023-02-15T10:07:37.749Z,27.83
2023-02-15T10:10:08.502Z,27.00
2023-02-15T10:12:57.074Z,26.73
2023-02-15T10:15:28.072Z,27.73
2023-02-15T10:18:14.220Z,27.77
2023-02-15T10:20:41.429Z,28.53
2023-02-15T10:23:27.127Z,24.67
2023-02-15T10:26:15.049Z,26.73
2023-02-15T10:28:45.376Z,24.37
2023-02-15T10:31:26.803Z,26.50
2023-02-15T10:34:20.490Z,24.47
2023-02-15T10:36:53.801Z,26.13
2023-02-15T10:39:21.399Z,24.50
2023-02-15T10:41:51.646Z,24.67
2023-02-15T10:44:18.800Z,24.80
2023-02-15T10:46:46.147Z,25.23
2023-02-15T10:49:32.240Z,25.40
2023-02-15T10:52:11.707Z,23.70
2023-02-15T10:54:55.506Z,23.77
2023-02-15T10:57:35.942Z,25.17
2023-02-15T11:00:10.431Z,24.20
2023-02-15T11:02:56.914Z,23.00
2023-02-15T11:05:27.556Z,24.03
2023-02-15T11:07:55.972Z,23.07
2023-02-15T11:10:29.968Z,23.93
2023-02-15T11:12:58.774Z,23.03
2023-02-15T11:15:26.004Z,23.07
2023-02-15T11:17:58.412Z,24.83
2023-02-15T11:20:35.123Z,22.90
2023-02-15T11:23:03.088Z,24.70
2023-02-15T11:25:35.238Z,23.60
2023-02-15T11:28:05.176Z,23.07
2023-02-15T11:30:44.772Z,23.67
2023-02-15T11:33:20.098Z,24.27
2023-02-15T11:35:53.042Z,23.83
2023-02-15T11:38:22.686Z,24.07
2023-02-15T11:40:57.529Z,24.47
2023-02-15T11:43:24.795Z,24.33
2023-02-15T11:45:52.052Z,23.97
2023-02-15T11:48:19.332Z,23.73
2023-02-15T11:50:46.932Z,24.50
2023-02-15T11:53:15.773Z,25.43
2023-02-15T11:55:47.636Z,23.13
2023-02-15T11:58:23.770Z,23.90
2023-02-15T12:00:53.687Z,24.10
2023-02-15T12:03:24.488Z,23.83
2023-02-15T12:05:55.502Z,25.07
2023-02-15T12:08:23.339Z,24.23
2023-02-15T12:10:59.551Z,25.57
2023-02-15T12:13:26.871Z,24.03
2023-02-15T12:15:55.955Z,25.77
2023-02-15T12:18:28.977Z,24.73
2023-02-15T12:20:59.815Z,25.13
2023-02-15T12:23:29.177Z,24.13
2023-02-15T12:25:57.001Z,24.67
2023-02-15T12:28:40.651Z,23.37
2023-02-15T12:31:24.536Z,25.70
2023-02-15T12:33:55.091Z,25.13
2023-02-15T12:36:45.515Z,24.73
2023-02-15T12:39:15.514Z,26.33
2023-02-15T12:41:47.530Z,27.03
2023-02-15T12:44:20.163Z,27.33
2023-02-15T12:47:07.331Z,26.73
2023-02-15T12:49:35.449Z,28.03
2023-02-15T12:52:04.354Z,26.70
2023-02-15T12:54:31.722Z,27.30
2023-02-15T12:57:00.855Z,27.33
2023-02-15T12:59:28.032Z,30.37
2023-02-15T13:01:55.398Z,28.20
2023-02-15T13:04:24.530Z,27.83
2023-02-15T13:06:53.566Z,32.47
2023-02-15T13:09:32.921Z,40.13
2023-02-15T13:12:18.705Z,45.60
2023-02-15T13:14:52.554Z,42.93
2023-02-15T13:17:22.105Z,31.53
2023-02-15T13:19:55.517Z,27.13
2023-02-15T13:22:49.158Z,26.97
2023-02-15T13:25:21.063Z,25.87
2023-02-15T13:27:50.260Z,26.17
2023-02-15T13:30:35.888Z,25.57
2023-02-15T13:33:07.616Z,27.07
2023-02-15T13:35:55.433Z,27.17
2023-02-15T13:38:40.726Z,25.97
2023-02-15T13:41:13.141Z,25.90
2023-02-15T13:43:46.486Z,25.47
2023-02-15T13:46:33.623Z,25.80
2023-02-15T13:49:19.993Z,26.90
2023-02-15T13:51:54.926Z,29.10
2023-02-15T13:54:25.197Z,27.70
2023-02-15T13:56:52.678Z,25.83
2023-02-15T13:59:22.969Z,27.10
2023-02-15T14:01:50.141Z,27.10
2023-02-15T14:04:24.273Z,27.33
2023-02-15T14:07:08.228Z,26.07
2023-02-15T14:09:48.061Z,28.03
2023-02-15T14:12:24.332Z,27.50
2023-02-15T14:14:58.100Z,27.93
2023-02-15T14:17:30.926Z,26.27
2023-02-15T14:20:01.675Z,26.13
2023-02-15T14:22:43.427Z,26.90
2023-02-15T14:25:16.773Z,26.47
2023-02-15T14:27:48.722Z,25.00
2023-02-15T14:30:24.660Z,26.83
2023-02-15T14:32:58.183Z,29.07
2023-02-15T14:35:27.812Z,28.53
2023-02-15T14:38:13.833Z,28.17
2023-02-15T14:41:03.568Z,28.30
2023-02-15T14:43:50.687Z,25.53
2023-02-15T14:46:36.804Z,26.57
2023-02-15T14:49:12.134Z,26.47
2023-02-15T14:51:46.493Z,25.53
2023-02-15T14:54:23.155Z,28.10
2023-02-15T14:57:02.543Z,26.37
2023-02-15T14:59:39.793Z,27.80
2023-02-15T15:02:09.959Z,27.97
2023-02-15T15:04:58.551Z,26.67
2023-02-15T15:07:27.305Z,27.87
2023-02-15T15:10:17.209Z,27.80
2023-02-15T15:12:46.046Z,28.67
2023-02-15T15:15:15.670Z,29.13
2023-02-15T15:17:57.207Z,27.83
2023-02-15T15:20:27.973Z,27.80
2023-02-15T15:23:13.672Z,28.47
2023-02-15T15:25:44.163Z,27.80
2023-02-15T15:28:11.854Z,28.37
2023-02-15T15:30:39.607Z,27.90
2023-02-15T15:33:27.418Z,28.63
2023-02-15T15:36:12.801Z,28.97
2023-02-15T15:38:45.850Z,33.30
2023-02-15T15:41:19.123Z,31.20
2023-02-15T15:43:55.458Z,32.10
2023-02-15T15:46:31.918Z,32.23
2023-02-15T15:49:03.541Z,31.63
2023-02-15T15:51:34.857Z,33.30
2023-02-15T15:54:03.425Z,34.13
2023-02-15T15:56:33.628Z,31.17
2023-02-15T15:59:02.946Z,30.37
2023-02-15T16:01:32.055Z,33.07
2023-02-15T16:04:00.313Z,32.80
2023-02-15T16:06:28.859Z,35.73
2023-02-15T16:08:56.097Z,47.10
2023-02-15T16:11:27.122Z,54.33
2023-02-15T16:13:54.652Z,70.60
2023-02-15T16:16:29.053Z,94.90
2023-02-15T16:18:58.779Z,94.40
2023-02-15T16:21:30.479Z,87.67
2023-02-15T16:24:03.839Z,85.03
2023-02-15T16:26:32.080Z,90.33
2023-02-15T16:29:00.400Z,98.73
2023-02-15T16:31:28.016Z,102.57
2023-02-15T16:33:56.508Z,103.13
2023-02-15T16:36:24.757Z,101.40
2023-02-15T16:38:51.981Z,120.47
2023-02-15T16:41:19.190Z,117.93
2023-02-15T16:43:48.211Z,111.47
2023-02-15T16:46:21.831Z,105.10
2023-02-15T16:48:52.783Z,121.37
2023-02-15T16:51:26.464Z,120.53
2023-02-15T16:53:55.674Z,111.50
2023-02-15T16:56:27.681Z,109.07
2023-02-15T16:58:56.703Z,102.10
2023-02-15T17:01:25.758Z,108.43
2023-02-15T17:04:11.524Z,103.90
2023-02-15T17:06:38.779Z,101.60
2023-02-15T17:09:07.280Z,82.97
2023-02-15T17:11:35.969Z,73.37
2023-02-15T17:14:10.509Z,63.13
2023-02-15T17:16:38.843Z,55.93
2023-02-15T17:19:16.397Z,57.70
2023-02-15T17:21:48.274Z,59.30
2023-02-15T17:24:22.396Z,52.47
2023-02-15T17:26:52.368Z,54.40
2023-02-15T17:29:29.673Z,56.10
2023-02-15T17:32:01.863Z,53.87
2023-02-15T17:34:41.189Z,58.50
2023-02-15T17:37:13.141Z,62.47
2023-02-15T17:39:41.573Z,66.73
2023-02-15T17:42:08.768Z,70.03
2023-02-15T17:44:35.992Z,77.17
2023-02-15T17:47:03.224Z,82.57
2023-02-15T17:49:34.957Z,83.33
2023-02-15T17:52:02.837Z,90.37
2023-02-15T17:54:48.754Z,85.67
2023-02-15T17:57:16.713Z,82.03
2023-02-15T18:00:02.519Z,76.17
2023-02-15T18:02:52.010Z,64.70
2023-02-15T18:05:38.152Z,62.83
2023-02-15T18:08:23.850Z,66.43
2023-02-15T18:11:09.806Z,71.33
2023-02-15T18:13:37.029Z,66.77
2023-02-15T18:16:04.740Z,65.27
2023-02-15T18:18:32.157Z,72.60
2023-02-15T18:20:59.329Z,96.27
2023-02-15T18:23:26.590Z,110.87
2023-02-15T18:25:54.282Z,110.87
2023-02-15T18:28:21.454Z,116.13
2023-02-15T18:30:48.798Z,110.63
2023-02-15T18:33:35.087Z,106.27
2023-02-15T18:36:03.763Z,97.57
2023-02-15T18:38:31.509Z,95.27
2023-02-15T18:40:59.105Z,92.17
2023-02-15T18:43:26.300Z,93.63
2023-02-15T18:45:53.905Z,99.70
2023-02-15T18:48:21.215Z,102.07
2023-02-15T18:50:48.557Z,101.07
2023-02-15T18:53:20.634Z,109.63
2023-02-15T18:55:49.712Z,117.13
2023-02-15T18:58:21.241Z,126.03
2023-02-15T19:00:49.993Z,126.67
2023-02-15T19:03:18.350Z,130.23
2023-02-15T19:05:46.743Z,140.20
2023-02-15T19:08:24.343Z,137.67
2023-02-15T19:10:52.229Z,138.07
2023-02-15T19:13:19.743Z,122.23
2023-02-15T19:15:46.916Z,110.77
2023-02-15T19:18:14.114Z,106.33
2023-02-15T19:20:42.976Z,103.33
2023-02-15T19:23:15.661Z,104.10
2023-02-15T19:25:43.171Z,103.57
2023-02-15T19:28:16.090Z,103.23
2023-02-15T19:30:43.437Z,105.27
2023-02-15T19:33:20.927Z,110.57
2023-02-15T19:35:52.445Z,126.67
2023-02-15T19:38:22.014Z,117.30
2023-02-15T19:40:49.321Z,107.60
2023-02-15T19:43:27.769Z,86.07
2023-02-15T19:45:55.054Z,64.03
2023-02-15T19:48:22.338Z,68.67
2023-02-15T19:50:49.913Z,78.97
2023-02-15T19:53:27.348Z,85.13
2023-02-15T19:55:54.789Z,80.07
2023-02-15T19:58:22.520Z,80.27
2023-02-15T20:00:51.050Z,78.10
2023-02-15T20:03:18.237Z,90.30
2023-02-15T20:05:46.090Z,95.10
2023-02-15T20:08:21.561Z,82.23
2023-02-15T20:10:48.791Z,81.57
2023-02-15T20:13:16.969Z,84.07
2023-02-15T20:15:44.862Z,84.80
2023-02-15T20:18:12.461Z,78.33
2023-02-15T20:20:39.762Z,79.43
2023-02-15T20:23:07.282Z,71.03
2023-02-15T20:25:34.522Z,67.30
2023-02-15T20:28:01.984Z,61.30
2023-02-15T20:30:30.803Z,62.90
2023-02-15T20:32:58.145Z,70.70
2023-02-15T20:35:26.178Z,74.90
2023-02-15T20:37:54.287Z,64.43
2023-02-15T20:40:22.829Z,66.87
2023-02-15T20:42:50.118Z,61.00
2023-02-15T20:45:21.584Z,60.43
2023-02-15T20:47:51.084Z,60.27
2023-02-15T20:50:28.861Z,58.53
2023-02-15T20:52:57.475Z,58.50
2023-02-15T20:55:29.232Z,59.67
2023-02-15T20:57:56.973Z,59.67
2023-02-15T21:00:25.587Z,60.63
2023-02-15T21:02:54.910Z,59.40
2023-02-15T21:05:23.631Z,58.20
2023-02-15T21:07:51.688Z,55.07
2023-02-15T21:10:19.862Z,55.63
2023-02-15T21:12:47.475Z,59.80
2023-02-15T21:15:17.700Z,67.90
2023-02-15T21:17:44.912Z,73.07
2023-02-15T21:20:15.669Z,74.47
2023-02-15T21:22:42.933Z,78.80
2023-02-15T21:25:24.089Z,82.30
2023-02-15T21:28:05.962Z,87.97
2023-02-15T21:30:44.279Z,105.53
2023-02-15T21:33:11.486Z,104.53
2023-02-15T21:35:39.086Z,90.13
2023-02-15T21:38:07.078Z,84.17
2023-02-15T21:40:34.822Z,79.23
2023-02-15T21:43:25.584Z,72.63
2023-02-15T21:46:11.673Z,74.17
2023-02-15T21:48:39.050Z,67.03
2023-02-15T21:51:25.056Z,62.77
2023-02-15T21:53:54.876Z,63.97
2023-02-15T21:56:24.372Z,63.10
2023-02-15T21:58:51.776Z,56.90
2023-02-15T22:01:22.111Z,55.10
2023-02-15T22:03:50.042Z,56.67
2023-02-15T22:06:17.615Z,56.63
2023-02-15T22:08:45.369Z,59.63
2023-02-15T22:11:13.987Z,62.07
2023-02-15T22:13:41.678Z,61.40
2023-02-15T22:16:14.270Z,62.00
2023-02-15T22:18:41.540Z,56.77
2023-02-15T22:21:09.836Z,55.53
2023-02-15T22:23:37.417Z,58.43
2023-02-15T22:26:09.611Z,59.10
2023-02-15T22:28:38.840Z,57.33
2023-02-15T22:31:11.226Z,56.73
2023-02-15T22:33:38.472Z,55.47
2023-02-15T22:36:05.848Z,57.13
2023-02-15T22:38:33.217Z,55.40
2023-02-15T22:41:04.013Z,55.73
2023-02-15T22:43:35.315Z,52.90
2023-02-15T22:46:03.618Z,56.50
2023-02-15T22:48:31.118Z,56.13
2023-02-15T22:50:58.467Z,58.47
2023-02-15T22:53:25.736Z,63.77
2023-02-15T22:55:53.820Z,64.97
2023-02-15T22:58:22.773Z,62.57
2023-02-15T23:00:50.509Z,62.30
2023-02-15T23:03:19.503Z,60.00
2023-02-15T23:05:47.167Z,57.93
2023-02-15T23:08:14.883Z,57.43
2023-02-15T23:10:43.066Z,57.60
2023-02-15T23:13:24.097Z,56.73
2023-02-15T23:15:56.191Z,66.27
2023-02-15T23:18:31.910Z,70.53
2023-02-15T23:21:04.472Z,70.10
2023-02-15T23:23:35.912Z,64.30
2023-02-15T23:26:04.720Z,61.60
2023-02-15T23:28:34.842Z,56.90
2023-02-15T23:31:02.644Z,56.13
2023-02-15T23:33:32.191Z,57.10
2023-02-15T23:35:59.771Z,57.00
2023-02-15T23:38:30.962Z,59.80
2023-02-15T23:41:18.545Z,56.73
2023-02-15T23:43:50.577Z,54.90
2023-02-15T23:46:29.476Z,51.10
2023-02-15T23:48:56.951Z,51.53
2023-02-15T23:51:28.189Z,48.50
2023-02-15T23:53:55.412Z,51.47
2023-02-15T23:56:22.753Z,49.20
2023-02-15T23:58:50.064Z,49.17
